createdAt,value
2019-02-27T19:15:22.044Z,7.10
2019-02-27T19:17:53.547Z,15.68
2019-02-27T19:20:30.629Z,15.83
2019-02-27T19:23:01.812Z,18.27
2019-02-27T19:25:34.753Z,18.15
2019-02-27T19:28:05.877Z,18.15
2019-02-27T19:30:38.671Z,19.45
2019-02-27T19:33:09.779Z,21.10
2019-02-27T19:35:40.882Z,19.57
2019-02-27T19:38:13.826Z,21.07
2019-02-27T19:40:45.209Z,21.45
2019-02-27T19:43:18.118Z,22.22
2019-02-27T19:45:49.140Z,22.50
2019-02-27T19:48:20.242Z,23.95
2019-02-27T19:50:51.529Z,21.10
2019-02-27T19:53:22.708Z,23.75
2019-02-27T19:55:53.832Z,22.87
2019-02-27T19:58:25.357Z,25.68
2019-02-27T20:00:57.090Z,22.60
2019-02-27T20:03:29.305Z,24.77
2019-02-27T20:11:10.264Z,20.92
2019-02-27T20:13:41.441Z,20.68
2019-02-27T20:16:12.562Z,18.62
2019-02-27T20:18:44.267Z,18.57
2019-02-27T20:21:15.569Z,21.02
2019-02-27T20:23:47.271Z,19.85
2019-02-27T20:26:20.953Z,20.43
2019-02-27T20:28:51.458Z,20.45
2019-02-27T20:31:22.809Z,21.33
2019-02-27T20:33:53.998Z,21.68
2019-02-27T20:36:29.785Z,18.42
2019-02-27T20:38:59.228Z,19.55
2019-02-27T20:41:30.474Z,18.40
2019-02-27T20:44:03.547Z,17.98
2019-02-27T20:46:34.603Z,17.42
2019-02-27T20:49:05.683Z,17.40
2019-02-27T20:51:39.827Z,17.48
2019-02-27T20:54:09.666Z,18.87
2019-02-27T20:56:40.831Z,17.05
2019-02-27T20:59:12.231Z,20.17
2019-02-27T21:01:47.062Z,16.62
2019-02-27T21:04:16.111Z,17.07
2019-02-27T21:06:47.670Z,18.82
2019-02-27T21:09:20.282Z,17.15
2019-02-27T21:11:51.446Z,16.93
2019-02-27T21:14:23.649Z,19.12
2019-02-27T21:16:56.397Z,19.27
2019-02-27T21:19:27.685Z,19.37
2019-02-27T21:21:59.948Z,18.40
2019-02-27T21:24:32.153Z,16.75
2019-02-27T21:27:03.357Z,19.07
2019-02-27T21:29:34.697Z,18.98
2019-02-27T21:32:05.856Z,20.45
2019-02-27T21:34:37.038Z,18.50
2019-02-27T21:37:10.058Z,16.67
2019-02-27T21:39:40.914Z,17.47
2019-02-27T21:42:12.004Z,17.00
2019-02-27T21:44:43.287Z,17.02
2019-02-27T21:47:14.266Z,17.85
2019-02-27T21:49:45.507Z,17.35
2019-02-27T21:52:21.429Z,14.78
2019-02-27T21:54:49.534Z,15.95
2019-02-27T21:57:22.925Z,17.15
2019-02-27T21:59:53.563Z,19.67
2019-02-27T22:02:27.200Z,17.87
2019-02-27T22:04:57.394Z,22.02
2019-02-27T22:07:32.906Z,20.43
2019-02-27T22:10:01.326Z,21.43
2019-02-27T22:12:35.231Z,23.02
2019-02-27T22:15:14.492Z,21.48
2019-02-27T22:17:45.532Z,17.12
2019-02-27T22:20:16.503Z,15.50
2019-02-27T22:22:47.577Z,16.45
2019-02-27T22:25:18.599Z,16.62
2019-02-27T22:27:49.639Z,15.85
2019-02-27T22:30:21.808Z,18.45
2019-02-27T22:32:52.797Z,15.80
2019-02-27T22:35:24.003Z,15.53
2019-02-27T22:37:55.040Z,15.63
2019-02-27T22:40:26.163Z,15.32
2019-02-27T22:42:57.324Z,14.00
2019-02-27T22:45:28.379Z,14.05
2019-02-27T22:47:59.518Z,16.40
2019-02-27T22:50:30.661Z,15.32
2019-02-27T22:53:01.640Z,14.85
2019-02-27T22:55:32.649Z,15.35
2019-02-27T22:58:03.800Z,15.43
2019-02-27T23:00:56.194Z,17.35
2019-02-27T23:03:46.516Z,16.30
2019-02-27T23:06:17.581Z,16.65
2019-02-27T23:08:48.606Z,16.45
2019-02-27T23:11:19.866Z,17.17
2019-02-27T23:13:50.909Z,14.23
2019-02-27T23:16:22.095Z,14.70
2019-02-27T23:18:53.193Z,15.50
2019-02-27T23:21:26.576Z,14.23
2019-02-27T23:23:57.129Z,14.43
2019-02-27T23:26:28.371Z,14.35
2019-02-27T23:29:00.577Z,15.63
2019-02-27T23:31:31.788Z,15.70
2019-02-27T23:34:02.933Z,15.83
2019-02-27T23:36:34.084Z,15.68
2019-02-27T23:39:08.632Z,14.47
2019-02-27T23:41:39.831Z,14.80
2019-02-27T23:44:12.217Z,15.48
2019-02-27T23:46:49.605Z,16.27
2019-02-27T23:49:16.139Z,17.10
2019-02-27T23:51:48.440Z,18.02
2019-02-27T23:54:19.749Z,16.27
2019-02-27T23:56:51.842Z,17.35
2019-02-27T23:59:23.683Z,17.13
